createdAt,value
2018-09-18T00:00:20.799Z,16.28
2018-09-18T00:02:49.711Z,16.14
2018-09-18T00:05:18.615Z,16.07
2018-09-18T00:07:47.354Z,16.33
2018-09-18T00:10:16.011Z,16.36
2018-09-18T00:12:44.655Z,16.17
2018-09-18T00:15:13.886Z,16.42
2018-09-18T00:17:42.558Z,16.34
2018-09-18T00:20:11.404Z,16.18
2018-09-18T00:22:40.667Z,16.16
2018-09-18T00:25:09.443Z,16.17
2018-09-18T00:27:38.222Z,15.97
2018-09-18T00:30:07.240Z,15.85
2018-09-18T00:32:36.005Z,16.00
2018-09-18T00:35:05.020Z,15.77
2018-09-18T00:37:34.022Z,16.01
2018-09-18T00:40:02.678Z,15.86
2018-09-18T00:42:31.555Z,15.87
2018-09-18T00:45:00.382Z,15.73
2018-09-18T00:47:29.163Z,15.59
2018-09-18T00:49:58.153Z,15.74
2018-09-18T00:52:26.869Z,15.89
2018-09-18T00:54:55.722Z,16.00
2018-09-18T00:57:24.758Z,16.05
2018-09-18T00:59:53.542Z,15.88
2018-09-18T01:02:22.315Z,15.85
2018-09-18T01:04:51.142Z,15.89
2018-09-18T01:07:19.998Z,15.76
2018-09-18T01:09:48.646Z,15.72
2018-09-18T01:12:17.654Z,15.73
2018-09-18T01:14:47.051Z,15.82
2018-09-18T01:17:15.759Z,15.65
2018-09-18T01:19:44.470Z,15.58
2018-09-18T01:22:13.412Z,15.71
2018-09-18T01:24:41.994Z,15.74
2018-09-18T01:27:11.098Z,15.68
2018-09-18T01:29:40.270Z,15.71
2018-09-18T01:32:08.938Z,15.49
2018-09-18T01:34:37.932Z,15.52
2018-09-18T01:37:06.750Z,15.48
2018-09-18T01:39:35.836Z,15.58
2018-09-18T01:42:04.454Z,15.64
2018-09-18T01:44:33.497Z,15.63
2018-09-18T01:47:02.494Z,15.37
2018-09-18T01:49:31.519Z,15.35
2018-09-18T01:52:00.867Z,15.08
2018-09-18T01:54:29.591Z,15.09
2018-09-18T01:56:58.490Z,15.16
2018-09-18T01:59:27.626Z,15.29
2018-09-18T02:01:56.371Z,15.11
2018-09-18T02:04:25.128Z,14.94
2018-09-18T02:06:54.243Z,14.85
2018-09-18T02:09:22.898Z,14.71
2018-09-18T02:11:51.783Z,14.70
2018-09-18T02:14:20.699Z,14.70
2018-09-18T02:16:49.795Z,14.68
2018-09-18T02:19:18.721Z,14.71
2018-09-18T02:21:47.454Z,14.61
2018-09-18T02:24:16.267Z,14.69
2018-09-18T02:26:45.048Z,14.64
2018-09-18T02:29:14.066Z,14.62
2018-09-18T02:31:42.650Z,14.55
2018-09-18T02:34:11.358Z,14.82
2018-09-18T02:36:40.283Z,14.96
2018-09-18T02:39:11.466Z,14.68
2018-09-18T02:41:40.225Z,14.32
2018-09-18T02:44:09.500Z,14.44
2018-09-18T02:46:38.549Z,14.53
2018-09-18T02:49:07.750Z,14.43
2018-09-18T02:51:36.975Z,14.44
2018-09-18T02:54:05.861Z,14.41
2018-09-18T02:56:34.758Z,14.31
2018-09-18T02:59:04.296Z,14.34
2018-09-18T03:01:33.244Z,14.48
2018-09-18T03:04:01.834Z,14.27
2018-09-18T03:06:30.488Z,14.40
2018-09-18T03:08:59.129Z,14.44
2018-09-18T03:11:27.755Z,14.49
2018-09-18T03:13:56.682Z,14.70
2018-09-18T03:16:25.647Z,14.54
2018-09-18T03:18:54.274Z,14.55
2018-09-18T03:21:23.059Z,14.50
2018-09-18T03:23:51.668Z,14.27
2018-09-18T03:26:20.590Z,14.46
2018-09-18T03:28:49.593Z,14.44
2018-09-18T03:31:18.312Z,14.52
2018-09-18T03:33:47.458Z,14.42
2018-09-18T03:36:16.922Z,14.50
2018-09-18T03:38:45.847Z,14.33
2018-09-18T03:41:14.722Z,14.36
2018-09-18T03:43:43.674Z,14.48
2018-09-18T03:46:12.424Z,14.61
2018-09-18T03:48:41.477Z,14.44
2018-09-18T03:51:11.026Z,14.22
2018-09-18T03:53:40.080Z,14.36
2018-09-18T03:56:09.103Z,14.23
2018-09-18T03:58:38.454Z,14.30
2018-09-18T04:01:07.332Z,14.09
2018-09-18T04:03:35.904Z,14.11
2018-09-18T04:06:05.350Z,14.27
2018-09-18T04:08:33.971Z,14.24
2018-09-18T04:11:02.802Z,14.23
2018-09-18T04:13:32.166Z,14.13
2018-09-18T04:16:00.854Z,14.04
2018-09-18T04:18:30.021Z,14.11
2018-09-18T04:20:59.134Z,14.28
2018-09-18T04:23:28.005Z,14.34
2018-09-18T04:25:56.792Z,14.07
2018-09-18T04:28:25.755Z,14.13
2018-09-18T04:30:54.782Z,14.34
2018-09-18T04:33:23.992Z,14.38
2018-09-18T04:35:53.192Z,14.53
2018-09-18T04:38:21.972Z,14.52
2018-09-18T04:40:50.980Z,14.56
2018-09-18T04:43:20.186Z,14.49
2018-09-18T04:45:49.246Z,14.75
2018-09-18T04:48:17.822Z,14.66
2018-09-18T04:50:46.950Z,14.69
2018-09-18T04:53:15.940Z,14.74
2018-09-18T04:55:44.634Z,14.72
2018-09-18T04:58:13.837Z,14.74
2018-09-18T05:00:42.960Z,14.87
2018-09-18T05:03:12.186Z,14.99
2018-09-18T05:05:41.291Z,15.06
2018-09-18T05:08:10.148Z,15.16
2018-09-18T05:10:39.111Z,15.28
2018-09-18T05:13:08.540Z,15.24
2018-09-18T05:15:37.310Z,15.50
2018-09-18T05:18:05.987Z,15.78
2018-09-18T05:20:35.380Z,15.84
2018-09-18T05:23:04.482Z,16.21
2018-09-18T05:25:33.399Z,16.19
2018-09-18T05:28:02.214Z,16.17
2018-09-18T05:30:31.018Z,16.31
2018-09-18T05:33:00.387Z,16.43
2018-09-18T05:35:29.282Z,16.52
2018-09-18T05:37:58.287Z,16.67
2018-09-18T05:40:27.170Z,16.75
2018-09-18T05:42:56.524Z,16.83
2018-09-18T05:45:25.461Z,16.88
2018-09-18T05:47:54.219Z,17.00
2018-09-18T05:50:22.844Z,17.02
2018-09-18T05:52:51.666Z,17.08
2018-09-18T05:55:20.891Z,17.13
2018-09-18T05:57:49.832Z,17.19
2018-09-18T06:00:18.974Z,17.18
2018-09-18T06:02:47.910Z,17.38
2018-09-18T06:05:17.023Z,17.37
2018-09-18T06:07:45.750Z,17.41
2018-09-18T06:10:14.877Z,17.48
2018-09-18T06:12:45.789Z,17.45
2018-09-18T06:15:14.845Z,17.35
2018-09-18T06:17:43.476Z,17.44
2018-09-18T06:20:12.245Z,17.61
2018-09-18T06:22:40.859Z,17.71
2018-09-18T06:25:10.475Z,17.77
2018-09-18T06:27:39.214Z,17.69
2018-09-18T06:30:08.738Z,17.77
2018-09-18T06:32:37.866Z,17.77
2018-09-18T06:35:07.219Z,18.03
2018-09-18T06:37:36.539Z,18.08
2018-09-18T06:40:06.056Z,18.05
2018-09-18T06:42:35.254Z,18.23
2018-09-18T06:45:04.860Z,18.33
2018-09-18T06:47:33.856Z,18.37
2018-09-18T06:50:02.584Z,18.65
2018-09-18T06:52:31.346Z,18.49
2018-09-18T06:55:00.156Z,18.74
2018-09-18T06:57:28.959Z,18.89
2018-09-18T06:59:58.379Z,19.07
2018-09-18T07:02:27.622Z,19.36
2018-09-18T07:04:56.373Z,19.63
2018-09-18T07:07:25.455Z,19.35
2018-09-18T07:09:54.326Z,19.34
2018-09-18T07:12:23.744Z,19.34
2018-09-18T07:14:52.957Z,19.76
2018-09-18T07:17:21.701Z,19.89
2018-09-18T07:19:50.507Z,20.01
2018-09-18T07:22:19.738Z,20.16
2018-09-18T07:24:49.435Z,20.26
2018-09-18T07:27:18.135Z,20.51
2018-09-18T07:29:47.763Z,20.55
2018-09-18T07:32:16.638Z,20.87
2018-09-18T07:34:45.319Z,20.89
2018-09-18T07:37:14.336Z,21.08
2018-09-18T07:39:43.201Z,21.17
2018-09-18T07:42:12.001Z,21.20
2018-09-18T07:44:41.063Z,21.19
2018-09-18T07:47:09.827Z,21.37
2018-09-18T07:49:38.920Z,21.84
2018-09-18T07:52:08.112Z,21.86
2018-09-18T07:54:37.000Z,21.80
2018-09-18T07:57:05.618Z,21.69
2018-09-18T07:59:34.956Z,21.87
2018-09-18T08:02:03.559Z,22.05
2018-09-18T08:04:32.428Z,22.29
2018-09-18T08:07:01.343Z,21.73
2018-09-18T08:09:30.488Z,22.20
2018-09-18T08:11:59.556Z,22.41
2018-09-18T08:14:28.745Z,22.58
2018-09-18T08:16:57.575Z,22.66
2018-09-18T08:19:26.414Z,22.61
2018-09-18T08:21:55.779Z,22.41
2018-09-18T08:24:24.858Z,22.73
2018-09-18T08:26:53.518Z,22.98
2018-09-18T08:29:22.518Z,23.03
2018-09-18T08:31:52.363Z,23.02
2018-09-18T08:34:21.266Z,23.18
2018-09-18T08:36:50.426Z,23.36
2018-09-18T08:39:19.500Z,23.71
2018-09-18T08:41:48.305Z,23.79
2018-09-18T08:44:17.589Z,23.86
2018-09-18T08:46:46.647Z,23.86
2018-09-18T08:49:15.698Z,23.93
2018-09-18T08:51:45.032Z,24.06
2018-09-18T08:54:13.896Z,24.04
2018-09-18T08:56:42.880Z,24.32
2018-09-18T08:59:11.908Z,24.31
2018-09-18T09:01:40.727Z,24.42
2018-09-18T09:04:09.495Z,24.83
2018-09-18T09:06:38.662Z,24.86
2018-09-18T09:09:14.541Z,24.92
2018-09-18T09:11:44.750Z,24.74
2018-09-18T09:14:14.124Z,24.93
2018-09-18T09:16:43.223Z,25.26
2018-09-18T09:19:12.552Z,25.13
2018-09-18T09:21:41.425Z,25.31
2018-09-18T09:24:10.284Z,25.51
2018-09-18T09:26:39.448Z,25.43
2018-09-18T09:29:08.020Z,25.62
2018-09-18T09:31:36.756Z,25.62
2018-09-18T09:34:05.717Z,25.75
2018-09-18T09:36:34.379Z,25.71
2018-09-18T09:39:03.172Z,26.36
2018-09-18T09:41:32.045Z,26.07
2018-09-18T09:44:00.802Z,26.42
2018-09-18T09:46:29.839Z,27.19
2018-09-18T09:48:59.216Z,27.34
2018-09-18T09:51:28.420Z,27.47
2018-09-18T09:53:57.403Z,27.45
2018-09-18T09:56:26.913Z,26.85
2018-09-18T09:58:55.719Z,27.13
2018-09-18T10:01:30.208Z,27.88
2018-09-18T10:03:59.039Z,28.38
2018-09-18T10:06:27.995Z,28.37
2018-09-18T10:08:56.926Z,28.13
2018-09-18T10:11:25.743Z,28.09
2018-09-18T10:13:54.839Z,28.31
2018-09-18T10:16:24.362Z,28.66
2018-09-18T10:18:53.460Z,29.32
2018-09-18T10:21:22.288Z,29.28
2018-09-18T10:23:51.247Z,29.47
2018-09-18T10:26:20.302Z,29.58
2018-09-18T10:28:49.411Z,29.36
2018-09-18T10:31:18.784Z,29.53
2018-09-18T10:33:47.788Z,29.85
2018-09-18T10:36:16.458Z,30.20
2018-09-18T10:38:45.346Z,29.97
2018-09-18T10:41:14.464Z,30.53
2018-09-18T10:43:43.287Z,29.88
2018-09-18T10:46:12.130Z,30.63
2018-09-18T10:48:46.408Z,30.07
2018-09-18T10:51:16.015Z,30.24
2018-09-18T10:53:44.791Z,30.82
2018-09-18T10:56:13.888Z,30.55
2018-09-18T10:58:43.792Z,31.24
2018-09-18T11:01:12.691Z,31.68
2018-09-18T11:03:41.503Z,31.97
2018-09-18T11:06:10.839Z,31.49
2018-09-18T11:08:39.501Z,31.84
2018-09-18T11:11:08.141Z,31.79
2018-09-18T11:13:37.405Z,31.13
2018-09-18T11:16:06.513Z,30.96
2018-09-18T11:18:35.613Z,31.24
2018-09-18T11:21:04.718Z,31.97
2018-09-18T11:23:33.843Z,32.55
2018-09-18T11:26:02.643Z,32.48
2018-09-18T11:28:31.971Z,32.18
2018-09-18T11:31:00.537Z,32.27
2018-09-18T11:33:29.848Z,32.53
2018-09-18T11:35:59.127Z,32.31
2018-09-18T11:38:27.785Z,32.27
2018-09-18T11:40:56.492Z,32.55
2018-09-18T11:43:25.454Z,31.81
2018-09-18T11:45:54.631Z,32.17
2018-09-18T11:48:23.163Z,32.28
2018-09-18T11:50:52.083Z,32.34
2018-09-18T11:53:20.786Z,32.26
2018-09-18T11:55:49.602Z,31.85
2018-09-18T11:58:18.723Z,32.56
2018-09-18T12:00:47.560Z,32.47
2018-09-18T12:03:16.528Z,32.59
2018-09-18T12:05:45.738Z,32.91
2018-09-18T12:08:14.867Z,32.97
2018-09-18T12:10:43.615Z,32.53
2018-09-18T12:13:12.689Z,32.97
2018-09-18T12:15:41.331Z,33.47
2018-09-18T12:18:10.285Z,33.93
2018-09-18T12:20:39.556Z,33.66
2018-09-18T12:23:08.482Z,33.68
2018-09-18T12:25:37.571Z,34.51
2018-09-18T12:28:06.396Z,34.76
2018-09-18T12:30:35.559Z,34.29
2018-09-18T12:33:04.554Z,34.33
2018-09-18T12:35:33.565Z,34.39
2018-09-18T12:38:02.644Z,33.58
2018-09-18T12:40:31.731Z,34.17
2018-09-18T12:43:00.449Z,34.28
2018-09-18T12:45:29.512Z,34.47
2018-09-18T12:47:58.211Z,34.47
2018-09-18T12:50:27.252Z,34.53
2018-09-18T12:52:56.091Z,34.02
2018-09-18T12:55:25.234Z,34.43
2018-09-18T12:57:54.153Z,35.11
2018-09-18T13:00:23.343Z,34.19
2018-09-18T13:02:52.342Z,33.99
2018-09-18T13:05:21.411Z,34.09
2018-09-18T13:07:50.737Z,34.13
2018-09-18T13:10:19.535Z,34.96
2018-09-18T13:12:48.605Z,35.07
2018-09-18T13:15:17.396Z,35.27
2018-09-18T13:17:46.110Z,34.88
2018-09-18T13:20:14.847Z,35.39
2018-09-18T13:22:44.166Z,35.92
2018-09-18T13:25:13.034Z,36.03
2018-09-18T13:27:41.868Z,35.72
2018-09-18T13:30:11.423Z,35.74
2018-09-18T13:32:40.629Z,35.75
2018-09-18T13:35:09.537Z,35.11
2018-09-18T13:37:38.716Z,35.78
2018-09-18T13:40:07.793Z,36.05
2018-09-18T13:42:36.531Z,36.58
2018-09-18T13:45:05.473Z,36.64
2018-09-18T13:47:34.159Z,36.82
2018-09-18T13:50:02.829Z,36.93
2018-09-18T13:52:31.720Z,37.35
2018-09-18T13:55:00.740Z,37.40
2018-09-18T13:57:29.542Z,37.77
2018-09-18T13:59:58.971Z,37.82
2018-09-18T14:02:28.647Z,37.29
2018-09-18T14:04:57.573Z,37.01
2018-09-18T14:07:26.667Z,37.27
2018-09-18T14:09:55.712Z,37.14
2018-09-18T14:12:24.494Z,37.73
2018-09-18T14:14:53.666Z,37.58
2018-09-18T14:17:22.202Z,37.40
2018-09-18T14:19:50.932Z,37.38
2018-09-18T14:22:20.179Z,37.33
2018-09-18T14:24:49.271Z,37.84
2018-09-18T14:27:18.462Z,37.97
2018-09-18T14:29:47.510Z,37.37
2018-09-18T14:32:16.672Z,37.33
2018-09-18T14:34:45.536Z,37.81
2018-09-18T14:37:14.709Z,37.85
2018-09-18T14:39:44.153Z,37.37
2018-09-18T14:42:13.076Z,36.86
2018-09-18T14:44:42.067Z,37.03
2018-09-18T14:47:10.700Z,36.21
2018-09-18T14:49:39.719Z,35.83
2018-09-18T14:52:08.705Z,35.45
2018-09-18T14:54:37.551Z,36.41
2018-09-18T14:57:06.451Z,36.72
2018-09-18T14:59:35.675Z,36.70
2018-09-18T15:02:04.651Z,36.60
2018-09-18T15:04:33.662Z,36.36
2018-09-18T15:07:02.927Z,35.84
2018-09-18T15:09:31.712Z,36.39
2018-09-18T15:12:00.469Z,36.20
2018-09-18T15:14:29.108Z,36.19
2018-09-18T15:16:57.736Z,36.11
2018-09-18T15:19:26.455Z,35.82
2018-09-18T15:21:55.473Z,36.07
2018-09-18T15:24:24.183Z,36.05
2018-09-18T15:26:52.958Z,35.93
2018-09-18T15:29:22.031Z,35.78
2018-09-18T15:31:50.858Z,35.52
2018-09-18T15:34:19.967Z,35.12
2018-09-18T15:36:49.049Z,35.31
2018-09-18T15:39:17.824Z,34.82
2018-09-18T15:41:46.894Z,35.18
2018-09-18T15:44:15.638Z,35.13
2018-09-18T15:46:44.409Z,33.84
2018-09-18T15:49:13.066Z,33.90
2018-09-18T15:51:41.875Z,32.90
2018-09-18T15:54:10.724Z,32.62
2018-09-18T15:56:39.809Z,32.82
2018-09-18T15:59:08.574Z,32.69
2018-09-18T16:01:37.459Z,32.59
2018-09-18T16:04:06.504Z,32.21
2018-09-18T16:06:35.651Z,31.81
2018-09-18T16:09:05.557Z,31.77
2018-09-18T16:11:34.655Z,31.52
2018-09-18T16:14:03.554Z,30.95
2018-09-18T16:16:32.251Z,30.43
2018-09-18T16:19:00.955Z,30.32
2018-09-18T16:21:29.809Z,29.77
2018-09-18T16:23:59.093Z,29.60
2018-09-18T16:26:27.904Z,29.32
2018-09-18T16:28:56.908Z,28.83
2018-09-18T16:31:26.082Z,28.35
2018-09-18T16:33:55.035Z,28.35
2018-09-18T16:36:23.991Z,28.13
2018-09-18T16:38:52.880Z,27.60
2018-09-18T16:41:22.113Z,27.36
2018-09-18T16:43:51.170Z,27.04
2018-09-18T16:46:20.007Z,26.87
2018-09-18T16:48:48.685Z,26.66
2018-09-18T16:51:17.367Z,26.44
2018-09-18T16:53:46.380Z,26.28
2018-09-18T16:56:15.262Z,26.02
2018-09-18T16:58:44.300Z,25.95
2018-09-18T17:01:12.989Z,25.66
2018-09-18T17:03:41.919Z,25.26
2018-09-18T17:06:10.810Z,25.18
2018-09-18T17:08:39.600Z,24.90
2018-09-18T17:11:08.587Z,24.65
2018-09-18T17:13:37.525Z,24.68
2018-09-18T17:16:06.379Z,24.43
2018-09-18T17:18:35.369Z,24.32
2018-09-18T17:21:04.174Z,24.21
2018-09-18T17:23:33.067Z,24.10
2018-09-18T17:26:02.104Z,24.18
2018-09-18T17:28:31.183Z,23.83
2018-09-18T17:30:59.921Z,23.69
2018-09-18T17:33:28.885Z,23.74
2018-09-18T17:35:57.595Z,23.50
2018-09-18T17:38:26.452Z,23.32
2018-09-18T17:40:55.716Z,23.48
2018-09-18T17:43:24.369Z,23.28
2018-09-18T17:45:53.406Z,23.24
2018-09-18T17:48:22.332Z,23.13
2018-09-18T17:50:51.078Z,23.28
2018-09-18T17:53:19.973Z,23.17
2018-09-18T17:55:49.015Z,23.18
2018-09-18T17:58:17.919Z,23.11
2018-09-18T18:00:46.793Z,22.82
2018-09-18T18:03:16.000Z,22.97
2018-09-18T18:05:45.115Z,22.81
2018-09-18T18:08:13.979Z,22.70
2018-09-18T18:10:43.031Z,22.78
2018-09-18T18:13:11.820Z,22.69
2018-09-18T18:15:40.848Z,22.76
2018-09-18T18:18:09.570Z,22.76
2018-09-18T18:20:38.377Z,22.48
2018-09-18T18:23:07.276Z,22.52
2018-09-18T18:25:36.472Z,22.40
2018-09-18T18:28:05.442Z,22.38
2018-09-18T18:30:34.282Z,22.16
2018-09-18T18:33:03.306Z,22.25
2018-09-18T18:35:32.316Z,22.25
2018-09-18T18:38:01.253Z,22.21
2018-09-18T18:40:30.522Z,22.28
2018-09-18T18:42:59.361Z,22.14
2018-09-18T18:45:28.647Z,22.13
2018-09-18T18:47:57.460Z,22.01
2018-09-18T18:50:26.094Z,21.99
2018-09-18T18:52:54.869Z,21.96
2018-09-18T18:55:23.968Z,21.88
2018-09-18T18:57:52.844Z,21.84
2018-09-18T19:00:21.506Z,21.89
2018-09-18T19:02:50.512Z,21.80
2018-09-18T19:05:19.322Z,21.76
2018-09-18T19:07:48.471Z,21.79
2018-09-18T19:10:17.422Z,21.88
2018-09-18T19:12:46.735Z,21.82
2018-09-18T19:15:15.813Z,21.77
2018-09-18T19:17:44.605Z,21.70
2018-09-18T19:20:13.778Z,21.74
2018-09-18T19:22:42.845Z,21.67
2018-09-18T19:25:11.744Z,21.56
2018-09-18T19:27:40.828Z,21.52
2018-09-18T19:30:09.709Z,21.48
2018-09-18T19:32:38.877Z,21.42
2018-09-18T19:35:08.116Z,21.26
2018-09-18T19:37:36.958Z,21.20
2018-09-18T19:40:05.885Z,21.21
2018-09-18T19:42:34.975Z,21.20
2018-09-18T19:45:03.819Z,21.11
2018-09-18T19:47:32.602Z,21.00
2018-09-18T19:50:01.373Z,20.91
2018-09-18T19:52:30.051Z,20.80
2018-09-18T19:54:59.148Z,20.76
2018-09-18T19:57:28.036Z,20.78
2018-09-18T19:59:56.989Z,20.76
2018-09-18T20:02:26.028Z,20.74
2018-09-18T20:04:55.079Z,20.66
2018-09-18T20:07:23.806Z,20.70
2018-09-18T20:09:52.661Z,20.62
2018-09-18T20:12:21.434Z,20.50
2018-09-18T20:14:50.171Z,20.58
2018-09-18T20:17:18.894Z,20.49
2018-09-18T20:19:47.529Z,20.42
2018-09-18T20:22:16.147Z,20.26
2018-09-18T20:24:45.151Z,20.24
2018-09-18T20:27:14.530Z,20.16
2018-09-18T20:29:43.467Z,20.17
2018-09-18T20:32:12.536Z,20.20
2018-09-18T20:34:41.693Z,20.05
2018-09-18T20:37:10.762Z,19.87
2018-09-18T20:39:39.741Z,19.74
2018-09-18T20:42:08.872Z,19.38
2018-09-18T20:44:37.736Z,19.41
2018-09-18T20:47:07.085Z,19.50
2018-09-18T20:49:35.800Z,19.39
2018-09-18T20:52:04.647Z,19.19
2018-09-18T20:54:33.583Z,19.08
2018-09-18T20:57:02.366Z,18.92
2018-09-18T20:59:31.550Z,18.65
2018-09-18T21:02:00.401Z,18.37
2018-09-18T21:04:29.419Z,18.27
2018-09-18T21:06:58.326Z,18.29
2018-09-18T21:09:27.180Z,18.09
2018-09-18T21:11:56.149Z,18.01
2018-09-18T21:14:25.193Z,18.05
2018-09-18T21:16:53.901Z,18.07
2018-09-18T21:19:22.516Z,17.79
2018-09-18T21:21:51.273Z,17.60
2018-09-18T21:24:20.050Z,17.65
2018-09-18T21:26:48.942Z,17.74
2018-09-18T21:29:17.734Z,17.61
2018-09-18T21:31:47.707Z,17.73
2018-09-18T21:34:16.643Z,17.71
2018-09-18T21:36:45.286Z,17.65
2018-09-18T21:39:14.208Z,17.60
2018-09-18T21:41:43.206Z,17.84
2018-09-18T21:44:12.319Z,17.68
2018-09-18T21:46:41.398Z,17.70
2018-09-18T21:49:10.298Z,17.29
2018-09-18T21:51:39.104Z,17.18
2018-09-18T21:54:07.776Z,17.30
2018-09-18T21:56:36.430Z,17.09
2018-09-18T21:59:05.450Z,16.86
2018-09-18T22:01:34.299Z,16.80
2018-09-18T22:04:03.101Z,16.77
2018-09-18T22:06:32.003Z,16.66
2018-09-18T22:09:00.724Z,16.73
2018-09-18T22:11:29.717Z,16.73
2018-09-18T22:13:58.473Z,16.70
2018-09-18T22:16:27.579Z,16.76
2018-09-18T22:18:56.547Z,16.53
2018-09-18T22:21:25.495Z,16.53
2018-09-18T22:23:54.293Z,16.48
2018-09-18T22:26:22.957Z,16.46
2018-09-18T22:28:51.664Z,16.41
2018-09-18T22:31:20.554Z,16.52
2018-09-18T22:33:49.391Z,16.68
2018-09-18T22:36:18.350Z,16.81
2018-09-18T22:38:47.301Z,16.51
2018-09-18T22:41:16.193Z,16.73
2018-09-18T22:43:45.366Z,16.60
2018-09-18T22:46:14.323Z,16.65
2018-09-18T22:48:43.465Z,16.73
2018-09-18T22:51:12.248Z,16.75
2018-09-18T22:53:41.183Z,16.48
2018-09-18T22:56:09.973Z,16.31
2018-09-18T22:58:38.863Z,16.10
2018-09-18T23:01:07.559Z,16.27
2018-09-18T23:03:36.417Z,16.33
2018-09-18T23:06:05.249Z,16.35
2018-09-18T23:08:34.261Z,16.21
2018-09-18T23:11:02.874Z,16.34
2018-09-18T23:13:31.915Z,16.37
2018-09-18T23:16:00.968Z,16.41
2018-09-18T23:18:29.888Z,16.27
2018-09-18T23:20:58.592Z,16.19
2018-09-18T23:23:27.486Z,16.22
2018-09-18T23:25:56.381Z,15.96
2018-09-18T23:28:24.973Z,15.88
2018-09-18T23:30:53.815Z,15.63
2018-09-18T23:33:22.534Z,15.53
2018-09-18T23:35:51.458Z,15.69
2018-09-18T23:38:20.673Z,15.69
2018-09-18T23:40:49.811Z,15.83
2018-09-18T23:43:18.882Z,15.79
2018-09-18T23:45:47.715Z,15.44
2018-09-18T23:48:16.439Z,15.52
2018-09-18T23:50:45.499Z,15.36
2018-09-18T23:53:14.231Z,15.26
2018-09-18T23:55:43.185Z,15.16
2018-09-18T23:58:11.821Z,15.25
